Time;durP1;ratioP1;P1;durP2;ratioP2;P2;SDS_P1;SDS_P2;PMS_P1;PMS_P2;Temp;Humidity;BMP_temperature;BMP_pressure;BME280_temperature;BME280_humidity;BME280_pressure;Samples;Min_cycle;Max_cycle;Signal;HPM_P1;HPM_P2
2022/05/23 00:02:08;;;;;;;5.35;2.00;;;14.80;99.90;;;;;;5086850;28;20463;-77
2022/05/23 00:04:36;;;;;;;4.18;2.20;;;14.80;99.90;;;;;;5081361;28;20426;-77
2022/05/23 00:07:05;;;;;;;5.35;1.92;;;14.80;99.90;;;;;;5085111;28;20430;-77
2022/05/23 00:09:30;;;;;;;3.70;1.95;;;14.70;99.90;;;;;;5072110;28;20044;-77
2022/05/23 00:11:56;;;;;;;6.82;2.47;;;14.80;99.90;;;;;;5068161;28;20494;-77
2022/05/23 00:14:25;;;;;;;6.53;2.20;;;14.70;99.90;;;;;;5064383;28;20086;-77
2022/05/23 00:16:51;;;;;;;7.88;2.28;;;14.60;99.90;;;;;;5065786;28;20048;-77
2022/05/23 00:19:19;;;;;;;6.10;2.17;;;14.70;99.90;;;;;;5068972;28;20086;-77
2022/05/23 00:21:45;;;;;;;6.53;2.50;;;14.70;99.90;;;;;;5069425;28;20078;-77
2022/05/23 00:24:15;;;;;;;5.70;2.20;;;14.60;99.90;;;;;;5072078;28;20048;-76
2022/05/23 00:26:43;;;;;;;6.25;2.55;;;14.60;99.90;;;;;;5061187;28;20181;-76
2022/05/23 00:29:09;;;;;;;4.72;2.28;;;14.50;99.90;;;;;;5078594;28;20045;-76
2022/05/23 00:31:35;;;;;;;4.53;2.63;;;14.50;99.90;;;;;;5075475;28;20052;-76
2022/05/23 00:36:45;;;;;;;5.38;2.20;;;14.50;99.90;;;;;;5086175;28;20048;-76
2022/05/23 00:39:11;;;;;;;3.53;2.30;;;14.40;99.90;;;;;;5056714;28;20091;-76
2022/05/23 00:44:30;;;;;;;5.63;2.30;;;14.30;99.90;;;;;;5076433;28;20064;-76
2022/05/23 00:47:17;;;;;;;5.85;2.20;;;14.30;99.90;;;;;;5073378;28;20071;-76
2022/05/23 00:49:43;;;;;;;4.85;2.70;;;14.20;99.90;;;;;;5083465;28;20052;-76
2022/05/23 00:52:13;;;;;;;6.97;2.45;;;14.20;99.90;;;;;;5064432;28;20056;-76
2022/05/23 00:54:44;;;;;;;7.50;3.10;;;14.20;99.90;;;;;;5084943;28;20048;-76
2022/05/23 00:57:15;;;;;;;4.97;2.70;;;14.20;99.90;;;;;;5079738;28;20064;-75
2022/05/23 00:59:41;;;;;;;6.60;2.78;;;14.10;99.90;;;;;;5083858;28;20044;-75
2022/05/23 01:02:10;;;;;;;6.18;2.60;;;14.10;99.90;;;;;;5068571;28;20436;-75
2022/05/23 01:04:37;;;;;;;8.52;2.95;;;14.10;99.90;;;;;;5085814;28;20056;-75
2022/05/23 01:07:02;;;;;;;8.50;2.92;;;14.10;99.90;;;;;;5068999;28;20044;-75
2022/05/23 01:09:28;;;;;;;4.72;2.47;;;14.00;99.90;;;;;;5082981;28;20079;-76
2022/05/23 01:11:56;;;;;;;6.07;2.78;;;14.00;99.90;;;;;;5073346;28;20438;-76
2022/05/23 01:14:22;;;;;;;10.10;3.00;;;13.90;99.90;;;;;;5089171;28;20118;-75
2022/05/23 01:16:48;;;;;;;6.80;3.55;;;13.90;99.90;;;;;;5087800;28;20180;-75
2022/05/23 01:19:14;;;;;;;8.10;3.17;;;13.90;99.90;;;;;;5070218;28;20151;-76
2022/05/23 01:22:03;;;;;;;7.65;3.30;;;13.90;99.90;;;;;;5076778;28;20047;-75
2022/05/23 01:24:41;;;;;;;8.38;3.08;;;13.90;99.90;;;;;;5067950;28;20084;-75
2022/05/23 01:27:17;;;;;;;8.13;3.55;;;13.80;99.90;;;;;;5087943;28;20348;-75
2022/05/23 01:29:44;;;;;;;6.50;3.25;;;13.80;99.90;;;;;;5068776;28;20043;-76
2022/05/23 01:32:11;;;;;;;5.50;3.28;;;13.80;99.90;;;;;;5062830;28;20052;-75
2022/05/23 01:34:37;;;;;;;6.57;3.40;;;13.70;99.90;;;;;;5070530;28;20051;-76
2022/05/23 01:37:03;;;;;;;7.20;3.50;;;13.70;99.90;;;;;;5087497;28;20043;-75
2022/05/23 01:39:29;;;;;;;8.85;4.28;;;13.70;99.90;;;;;;5085105;28;20055;-76
2022/05/23 01:41:55;;;;;;;5.50;3.05;;;13.70;99.90;;;;;;5076396;28;20032;-75
2022/05/23 01:44:21;;;;;;;10.07;4.03;;;13.60;99.90;;;;;;5083827;28;20073;-76
2022/05/23 01:46:46;;;;;;;5.07;3.10;;;13.60;99.90;;;;;;5065096;28;20040;-75
2022/05/23 01:49:12;;;;;;;8.73;3.45;;;13.60;99.90;;;;;;5073179;28;20044;-75
2022/05/23 01:51:37;;;;;;;5.43;3.38;;;13.60;99.90;;;;;;5084821;28;20035;-75
2022/05/23 01:54:03;;;;;;;7.32;3.15;;;13.70;99.90;;;;;;5054335;28;20044;-76
2022/05/23 01:56:29;;;;;;;9.90;3.88;;;13.60;99.90;;;;;;5078247;28;20134;-75
2022/05/23 02:01:39;;;;;;;8.88;2.90;;;13.50;99.90;;;;;;5083386;28;20050;-75
2022/05/23 02:04:04;;;;;;;8.52;3.10;;;13.50;99.90;;;;;;5069138;28;20496;-75
2022/05/23 02:06:30;;;;;;;9.52;3.78;;;13.50;99.90;;;;;;5051923;28;20048;-75
2022/05/23 02:08:56;;;;;;;4.72;2.78;;;13.50;99.90;;;;;;5083388;28;20108;-74
2022/05/23 02:11:21;;;;;;;7.35;3.22;;;13.50;99.90;;;;;;5083021;28;20048;-74
2022/05/23 02:13:47;;;;;;;7.13;3.05;;;13.50;99.90;;;;;;5080763;28;20059;-75
2022/05/23 02:16:13;;;;;;;6.78;3.30;;;13.40;99.90;;;;;;5089081;28;20131;-74
2022/05/23 02:18:38;;;;;;;6.90;3.22;;;13.40;99.90;;;;;;5077368;28;20046;-74
2022/05/23 02:21:05;;;;;;;6.32;3.35;;;13.40;99.90;;;;;;5082162;28;20486;-74
2022/05/23 02:23:30;;;;;;;5.90;3.25;;;13.50;99.90;;;;;;5057271;28;20139;-75
2022/05/23 02:25:56;;;;;;;10.75;4.10;;;13.40;99.90;;;;;;5088796;28;20111;-74
2022/05/23 02:28:22;;;;;;;6.07;2.90;;;13.40;99.90;;;;;;5088547;28;20484;-74
2022/05/23 02:30:48;;;;;;;8.00;2.83;;;13.60;99.90;;;;;;5078304;28;20037;-74
2022/05/23 02:33:20;;;;;;;7.53;3.08;;;13.40;99.90;;;;;;5090401;28;20379;-75
2022/05/23 02:35:47;;;;;;;6.22;3.20;;;13.40;99.90;;;;;;5088471;28;20036;-74
2022/05/23 02:38:12;;;;;;;6.28;2.63;;;13.40;99.90;;;;;;5089753;28;20146;-74
2022/05/23 02:40:41;;;;;;;5.68;2.50;;;13.40;99.90;;;;;;5059788;28;20125;-75
2022/05/23 02:43:06;;;;;;;4.88;2.67;;;13.40;99.90;;;;;;5086289;28;20511;-74
2022/05/23 02:45:32;;;;;;;7.57;2.72;;;13.40;99.90;;;;;;5067298;28;20078;-74
2022/05/23 02:47:58;;;;;;;4.28;2.33;;;13.40;99.90;;;;;;5075424;28;20218;-75
2022/05/23 02:50:24;;;;;;;7.95;3.08;;;13.40;99.90;;;;;;5086840;28;20211;-75
2022/05/23 02:52:49;;;;;;;5.60;2.53;;;13.40;99.90;;;;;;5076712;28;20586;-74
2022/05/23 02:55:15;;;;;;;9.48;2.70;;;13.40;99.90;;;;;;5075822;28;20055;-74
2022/05/23 02:57:41;;;;;;;5.95;2.50;;;13.40;99.90;;;;;;5066466;28;20060;-75
2022/05/23 03:00:09;;;;;;;5.45;2.65;;;13.30;99.90;;;;;;5085453;28;20129;-75
2022/05/23 03:05:19;;;;;;;5.63;2.80;;;13.40;99.90;;;;;;5056956;28;20076;-75
2022/05/23 03:07:47;;;;;;;4.32;2.58;;;13.30;99.90;;;;;;5068335;28;20067;-75
2022/05/23 03:10:16;;;;;;;5.95;2.40;;;13.40;99.90;;;;;;5086047;28;20383;-75
2022/05/23 03:12:42;;;;;;;7.90;2.63;;;13.40;99.90;;;;;;5089124;28;20835;-75
2022/05/23 03:15:08;;;;;;;4.57;2.40;;;13.40;99.90;;;;;;5065549;28;20036;-75
2022/05/23 03:17:34;;;;;;;3.80;2.40;;;13.30;99.90;;;;;;5068182;28;20515;-75
2022/05/23 03:20:02;;;;;;;9.05;2.58;;;13.40;99.90;;;;;;5080485;28;20162;-75
2022/05/23 03:27:56;;;;;;;9.85;2.58;;;13.40;99.90;;;;;;5069453;28;20045;-75
2022/05/23 03:30:22;;;;;;;6.78;2.88;;;13.30;99.90;;;;;;5077874;28;20073;-76
2022/05/23 03:32:50;;;;;;;6.05;2.70;;;13.30;99.90;;;;;;5079766;28;20048;-75
2022/05/23 03:35:16;;;;;;;6.28;2.67;;;13.40;99.90;;;;;;5063312;28;20042;-75
2022/05/23 03:37:42;;;;;;;5.40;2.65;;;13.40;99.90;;;;;;5085161;28;20763;-75
2022/05/23 03:40:08;;;;;;;8.25;3.45;;;13.30;99.90;;;;;;5076745;28;20169;-75
2022/05/23 03:42:34;;;;;;;6.75;2.75;;;13.30;99.90;;;;;;5086233;28;20044;-76
2022/05/23 03:45:00;;;;;;;5.07;2.50;;;13.40;99.90;;;;;;5077389;28;20094;-75
2022/05/23 03:47:26;;;;;;;5.22;2.67;;;13.40;99.90;;;;;;5085754;28;20040;-75
2022/05/23 03:49:52;;;;;;;5.15;2.80;;;13.40;99.90;;;;;;5072372;28;20128;-75
2022/05/23 03:52:17;;;;;;;5.28;2.50;;;13.40;99.90;;;;;;5079617;28;20515;-75
2022/05/23 03:54:43;;;;;;;8.63;2.92;;;13.40;99.90;;;;;;5082460;28;20042;-76
2022/05/23 03:57:09;;;;;;;4.40;2.22;;;13.40;99.90;;;;;;5069516;28;20068;-76
2022/05/23 03:59:34;;;;;;;6.95;2.85;;;13.40;99.90;;;;;;5086852;28;20131;-75
2022/05/23 04:02:00;;;;;;;6.20;2.80;;;13.40;99.90;;;;;;5060880;28;20066;-75
2022/05/23 04:04:28;;;;;;;5.97;2.85;;;13.40;99.90;;;;;;5049683;28;20125;-75
2022/05/23 04:06:59;;;;;;;9.80;2.50;;;13.40;99.90;;;;;;5058819;28;20040;-77
2022/05/23 04:09:25;;;;;;;6.97;2.78;;;13.40;99.90;;;;;;5090465;28;20068;-75
2022/05/23 04:11:57;;;;;;;8.77;2.55;;;13.40;99.90;;;;;;5068492;28;20392;-75
2022/05/23 04:14:32;;;;;;;5.97;2.53;;;13.40;99.90;;;;;;5074115;28;20115;-77
2022/05/23 04:16:58;;;;;;;6.72;2.58;;;13.50;99.90;;;;;;5081151;28;20119;-75
2022/05/23 04:19:27;;;;;;;8.63;2.50;;;13.40;99.90;;;;;;5061764;28;20552;-76
2022/05/23 04:21:53;;;;;;;5.40;2.47;;;13.40;99.90;;;;;;5059405;28;20041;-75
2022/05/23 04:24:19;;;;;;;5.45;2.78;;;13.40;99.90;;;;;;5068960;28;20040;-75
2022/05/23 04:26:50;;;;;;;5.80;2.40;;;13.50;99.90;;;;;;5086707;28;20040;-75
2022/05/23 04:29:16;;;;;;;;;;;13.50;99.90;;;;;;5088821;28;20062;-75
2022/05/23 04:31:41;;;;;;;6.72;2.47;;;13.40;99.90;;;;;;5087459;28;20360;-75
2022/05/23 04:36:51;;;;;;;6.35;2.85;;;13.40;99.90;;;;;;5083179;28;20087;-76
2022/05/23 04:39:17;;;;;;;5.78;2.47;;;13.50;99.90;;;;;;5085692;28;20453;-75
2022/05/23 04:41:43;;;;;;;7.90;2.70;;;13.50;99.90;;;;;;5090744;28;20502;-75
2022/05/23 04:44:08;;;;;;;7.38;2.75;;;13.50;99.90;;;;;;5078464;28;20047;-76
2022/05/23 04:46:34;;;;;;;9.20;2.75;;;13.50;99.90;;;;;;5090285;28;20032;-76
2022/05/23 04:51:44;;;;;;;7.38;2.72;;;13.50;99.90;;;;;;5085075;28;20123;-75
2022/05/23 04:54:10;;;;;;;5.20;2.38;;;13.60;99.90;;;;;;5112189;28;20202;-75
2022/05/23 04:56:39;;;;;;;6.38;2.55;;;13.60;99.90;;;;;;5087655;28;20052;-75
2022/05/23 04:59:05;;;;;;;4.93;2.70;;;13.60;99.90;;;;;;5088785;28;20644;-77
2022/05/23 05:01:34;;;;;;;4.40;2.50;;;13.60;99.90;;;;;;5067268;28;20044;-76
2022/05/23 05:03:59;;;;;;;6.30;3.13;;;13.60;99.90;;;;;;5074847;28;20089;-75
2022/05/23 05:06:26;;;;;;;5.90;2.53;;;13.60;99.90;;;;;;5082880;28;20056;-75
2022/05/23 05:08:52;;;;;;;6.88;2.67;;;13.60;99.90;;;;;;5073032;28;20051;-76
2022/05/23 05:11:18;;;;;;;5.80;2.85;;;13.70;99.90;;;;;;5071623;28;20044;-75
2022/05/23 05:13:44;;;;;;;7.25;3.13;;;13.70;99.90;;;;;;5088346;28;20040;-75
2022/05/23 05:16:11;;;;;;;5.03;2.60;;;13.80;99.90;;;;;;5071759;28;20044;-75
2022/05/23 05:18:37;;;;;;;8.48;2.95;;;13.80;99.90;;;;;;5088690;28;20066;-75
2022/05/23 05:21:10;;;;;;;12.68;4.63;;;13.80;99.90;;;;;;5070144;28;20044;-75
2022/05/23 05:23:36;;;;;;;4.55;2.63;;;13.90;99.90;;;;;;5088197;28;20098;-75
2022/05/23 05:26:05;;;;;;;5.80;3.30;;;13.90;99.90;;;;;;5072828;28;20434;-75
2022/05/23 05:28:31;;;;;;;13.38;3.55;;;13.90;99.90;;;;;;5088146;28;20108;-75
2022/05/23 05:31:05;;;;;;;8.45;3.63;;;14.00;99.90;;;;;;5071629;28;20051;-75
2022/05/23 05:33:36;;;;;;;7.80;3.05;;;14.00;99.90;;;;;;5088530;28;20123;-75
2022/05/23 05:36:19;;;;;;;6.93;3.13;;;14.10;99.90;;;;;;5071930;28;20036;-74
2022/05/23 05:38:54;;;;;;;8.73;3.42;;;14.10;99.90;;;;;;5089179;28;20082;-75
2022/05/23 05:41:23;;;;;;;8.27;3.45;;;14.10;99.90;;;;;;5088343;28;20048;-75
2022/05/23 05:43:55;;;;;;;8.05;3.50;;;14.10;99.90;;;;;;5070764;28;20109;-75
2022/05/23 05:46:25;;;;;;;9.88;4.15;;;14.10;99.90;;;;;;5069889;28;20036;-75
2022/05/23 05:48:52;;;;;;;10.27;3.88;;;14.20;99.90;;;;;;5088848;28;20055;-75
2022/05/23 05:51:21;;;;;;;18.10;4.50;;;14.20;99.90;;;;;;5071798;28;20471;-76
2022/05/23 05:53:49;;;;;;;7.43;3.92;;;14.20;99.90;;;;;;5085808;28;20086;-76
2022/05/23 05:56:15;;;;;;;10.95;4.30;;;14.20;99.90;;;;;;5078499;28;20061;-75
2022/05/23 05:58:40;;;;;;;8.02;3.83;;;14.20;99.90;;;;;;5066442;28;20131;-75
2022/05/23 06:01:09;;;;;;;8.18;4.07;;;14.30;99.90;;;;;;5062636;28;20056;-75
2022/05/23 06:03:34;;;;;;;8.00;3.90;;;14.30;99.90;;;;;;5045625;28;20068;-74
2022/05/23 06:11:30;;;;;;;8.25;4.35;;;14.30;99.90;;;;;;5067751;28;20048;-75
2022/05/23 06:14:02;;;;;;;9.88;4.63;;;14.40;99.90;;;;;;5057957;28;20593;-75
2022/05/23 06:16:30;;;;;;;9.48;4.18;;;14.40;99.90;;;;;;5049758;28;20036;-75
2022/05/23 06:18:56;;;;;;;9.00;4.53;;;14.50;99.90;;;;;;5066794;28;20190;-75
2022/05/23 06:21:23;;;;;;;7.95;4.57;;;14.50;99.90;;;;;;5066789;28;20128;-74
2022/05/23 06:23:49;;;;;;;16.25;5.97;;;14.50;99.90;;;;;;5066551;28;20150;-74
2022/05/23 06:26:17;;;;;;;10.02;5.53;;;14.60;99.90;;;;;;5050162;28;20045;-75
2022/05/23 06:28:43;;;;;;;8.43;4.80;;;14.60;99.90;;;;;;5046725;28;20052;-75
2022/05/23 06:31:10;;;;;;;12.30;5.63;;;14.70;99.90;;;;;;5064544;28;20093;-74
2022/05/23 06:33:36;;;;;;;8.65;4.72;;;14.80;99.90;;;;;;5066739;28;20381;-74
2022/05/23 06:36:04;;;;;;;9.98;5.10;;;14.80;99.90;;;;;;5050671;28;20048;-74
2022/05/23 06:38:30;;;;;;;11.25;6.07;;;14.80;99.90;;;;;;5067480;28;20041;-74
2022/05/23 06:40:58;;;;;;;9.10;5.03;;;14.90;99.90;;;;;;5048303;28;20044;-74
2022/05/23 06:43:24;;;;;;;12.20;5.50;;;14.90;99.90;;;;;;5065471;28;20171;-75
2022/05/23 06:45:50;;;;;;;11.48;5.50;;;15.00;99.90;;;;;;5068246;28;20537;-74
2022/05/23 06:48:16;;;;;;;9.80;4.97;;;15.10;99.90;;;;;;5048603;28;20052;-74
2022/05/23 06:50:44;;;;;;;13.02;6.22;;;15.10;99.90;;;;;;5065760;28;20032;-75
2022/05/23 06:53:10;;;;;;;10.63;5.50;;;15.20;99.90;;;;;;5064563;28;20052;-74
2022/05/23 06:55:36;;;;;;;14.38;4.95;;;15.20;99.90;;;;;;5044839;28;20107;-74
2022/05/23 06:58:02;;;;;;;15.38;5.40;;;15.40;99.90;;;;;;5087761;28;20090;-74
2022/05/23 07:00:30;;;;;;;12.30;5.10;;;15.40;99.90;;;;;;5063298;28;20471;-74
2022/05/23 07:02:56;;;;;;;6.80;5.22;;;15.40;99.90;;;;;;5084125;28;20047;-74
2022/05/23 07:13:38;;;;;;;12.02;5.85;;;15.70;99.90;;;;;;5084715;28;20040;-75
2022/05/23 07:16:05;;;;;;;11.02;5.72;;;15.80;99.90;;;;;;5069075;28;20046;-76
2022/05/23 07:18:31;;;;;;;10.27;5.55;;;15.80;99.90;;;;;;5058827;28;20044;-76
2022/05/23 07:20:56;;;;;;;14.38;6.22;;;15.90;99.90;;;;;;5083686;28;20093;-76
2022/05/23 07:23:22;;;;;;;9.45;5.47;;;15.90;99.90;;;;;;5068830;28;20089;-77
2022/05/23 07:25:48;;;;;;;14.18;5.63;;;16.00;99.90;;;;;;5085329;28;20048;-76
2022/05/23 07:28:14;;;;;;;12.05;6.00;;;16.10;99.90;;;;;;5070361;28;20076;-77
2022/05/23 07:30:45;;;;;;;8.85;5.95;;;16.10;99.90;;;;;;5065852;28;20044;-76
2022/05/23 07:33:11;;;;;;;11.35;5.20;;;16.20;99.90;;;;;;5089811;28;20040;-76
2022/05/23 07:35:40;;;;;;;9.68;5.68;;;16.30;99.90;;;;;;5066850;28;20054;-76
2022/05/23 07:38:05;;;;;;;9.07;5.68;;;16.40;99.90;;;;;;5084112;28;20130;-76
2022/05/23 07:40:31;;;;;;;13.90;6.70;;;16.50;99.90;;;;;;5087390;28;20131;-76
2022/05/23 07:42:56;;;;;;;10.77;5.28;;;16.60;99.90;;;;;;5086011;28;20189;-76
2022/05/23 07:45:22;;;;;;;14.32;5.88;;;16.60;99.90;;;;;;5081941;28;20098;-76
2022/05/23 07:47:48;;;;;;;10.27;5.07;;;16.80;99.90;;;;;;5066655;28;20036;-76
2022/05/23 07:50:13;;;;;;;10.77;5.85;;;16.90;99.90;;;;;;5069617;28;20121;-75
2022/05/23 07:52:39;;;;;;;9.88;5.18;;;16.90;99.90;;;;;;5087139;28;20119;-75
2022/05/23 08:00:54;;;;;;;10.75;5.57;;;17.10;99.90;;;;;;5004940;28;20065;-75
2022/05/23 08:03:20;;;;;;;11.20;5.60;;;17.20;99.90;;;;;;5005917;28;20046;-75
2022/05/23 08:05:46;;;;;;;15.20;5.63;;;17.30;99.90;;;;;;5038864;28;20137;-74
2022/05/23 08:08:11;;;;;;;11.15;5.70;;;17.30;99.90;;;;;;5068893;28;20499;-75
2022/05/23 08:10:38;;;;;;;9.27;5.13;;;17.30;99.90;;;;;;5085625;28;20398;-76
2022/05/23 08:13:09;;;;;;;10.65;5.32;;;17.40;99.90;;;;;;5066848;28;20582;-76
2022/05/23 08:15:37;;;;;;;16.40;6.25;;;17.50;99.90;;;;;;5084036;28;20119;-75
2022/05/23 08:18:05;;;;;;;15.07;6.18;;;17.50;99.90;;;;;;5081746;28;20038;-76
2022/05/23 08:20:31;;;;;;;8.35;5.32;;;17.60;99.90;;;;;;5085283;28;20040;-75
2022/05/23 08:22:59;;;;;;;13.30;6.25;;;17.70;99.90;;;;;;5086508;28;20040;-75
2022/05/23 08:25:25;;;;;;;8.48;4.60;;;17.70;99.90;;;;;;5086138;28;20154;-76
2022/05/23 08:27:53;;;;;;;9.73;4.35;;;17.70;99.90;;;;;;5069678;28;20088;-75
2022/05/23 08:30:19;;;;;;;7.63;4.82;;;17.80;99.90;;;;;;5088265;28;20405;-74
2022/05/23 08:32:45;;;;;;;11.25;5.15;;;17.80;99.90;;;;;;5086104;28;20039;-75
2022/05/23 08:35:11;;;;;;;10.85;5.35;;;17.90;99.90;;;;;;5088332;28;20085;-73
2022/05/23 08:37:37;;;;;;;13.23;5.70;;;17.90;99.90;;;;;;5066527;28;20047;-75
2022/05/23 08:40:04;;;;;;;11.65;4.80;;;18.00;99.90;;;;;;5068228;28;20052;-75
2022/05/23 08:42:43;;;;;;;9.38;4.40;;;18.00;99.90;;;;;;5063052;28;20234;-74
2022/05/23 08:45:39;;;;;;;8.43;5.15;;;18.10;99.90;;;;;;5080446;28;20054;-74
2022/05/23 08:48:18;;;;;;;13.15;5.45;;;18.20;99.90;;;;;;5085324;28;20044;-75
2022/05/23 08:50:59;;;;;;;8.82;5.05;;;18.30;99.90;;;;;;5068056;28;20071;-76
2022/05/23 08:53:37;;;;;;;8.93;5.00;;;18.40;99.90;;;;;;5066566;28;20093;-75
2022/05/23 08:56:20;;;;;;;10.00;4.75;;;18.50;99.90;;;;;;5064024;28;20056;-75
2022/05/23 08:58:48;;;;;;;11.00;5.10;;;18.60;99.90;;;;;;5088015;28;20187;-75
2022/05/23 09:01:25;;;;;;;10.23;4.70;;;18.70;99.90;;;;;;5084850;28;20193;-75
2022/05/23 09:04:15;;;;;;;9.25;5.10;;;18.70;99.90;;;;;;5073177;28;20094;-75
2022/05/23 09:06:47;;;;;;;9.93;5.32;;;18.80;99.90;;;;;;5067052;28;20052;-75
2022/05/23 09:09:16;;;;;;;13.98;5.63;;;18.80;99.90;;;;;;5077409;28;20052;-74
2022/05/23 09:11:45;;;;;;;11.57;5.03;;;18.90;99.90;;;;;;5063274;28;20602;-75
2022/05/23 09:14:16;;;;;;;7.82;5.00;;;18.90;99.90;;;;;;5068337;28;20097;-75
2022/05/23 09:16:51;;;;;;;7.50;4.95;;;19.00;99.90;;;;;;5085923;28;20127;-75
2022/05/23 09:19:26;;;;;;;12.43;5.55;;;19.10;99.90;;;;;;5085984;28;20092;-74
2022/05/23 09:22:12;;;;;;;12.15;5.68;;;19.20;99.90;;;;;;5086776;28;20131;-74
2022/05/23 09:24:41;;;;;;;9.85;5.38;;;19.30;99.90;;;;;;5082733;28;20569;-78
2022/05/23 09:27:17;;;;;;;8.55;4.80;;;19.30;99.90;;;;;;5087383;28;20036;-74
2022/05/23 09:29:44;;;;;;;11.32;5.47;;;19.40;99.90;;;;;;5087918;28;20048;-74
2022/05/23 09:32:15;;;;;;;8.25;5.05;;;19.50;99.90;;;;;;5091340;28;20055;-74
2022/05/23 09:34:48;;;;;;;11.15;5.38;;;19.50;99.90;;;;;;5089870;28;20424;-74
2022/05/23 09:37:24;;;;;;;7.55;4.90;;;19.70;99.90;;;;;;5071437;28;20150;-74
2022/05/23 09:39:59;;;;;;;8.18;4.10;;;19.70;99.90;;;;;;5087331;28;20046;-74
2022/05/23 09:48:16;;;;;;;8.50;4.47;;;20.00;99.90;;;;;;5065647;28;20052;-73
2022/05/23 09:50:51;;;;;;;10.40;3.58;;;20.20;99.90;;;;;;5072525;28;20148;-73
2022/05/23 09:53:24;;;;;;;7.15;3.72;;;20.30;99.90;;;;;;5091060;28;20122;-74
2022/05/23 09:55:50;;;;;;;6.53;3.33;;;20.40;99.90;;;;;;5068123;28;20558;-73
2022/05/23 09:58:34;;;;;;;8.95;3.97;;;20.60;99.90;;;;;;5067601;28;20084;-73
2022/05/23 10:01:08;;;;;;;8.98;3.50;;;20.70;99.90;;;;;;5051078;28;20141;-74
2022/05/23 10:03:35;;;;;;;8.23;3.38;;;20.90;99.90;;;;;;5069356;28;20048;-74
2022/05/23 10:06:11;;;;;;;8.05;3.40;;;21.00;99.90;;;;;;5071582;28;20084;-73
2022/05/23 10:08:43;;;;;;;5.32;3.33;;;21.10;99.90;;;;;;5068633;28;20045;-74
2022/05/23 10:11:25;;;;;;;6.15;2.67;;;21.30;99.90;;;;;;5053357;28;20052;-74
2022/05/23 10:13:57;;;;;;;7.90;2.72;;;21.40;99.90;;;;;;5069623;28;20071;-74
2022/05/23 10:16:39;;;;;;;8.80;2.90;;;21.50;99.90;;;;;;5070590;28;20071;-74
2022/05/23 10:19:06;;;;;;;12.70;3.00;;;21.60;99.90;;;;;;5068759;28;20520;-74
2022/05/23 10:21:34;;;;;;;7.22;3.28;;;21.60;99.90;;;;;;5058753;28;20119;-74
2022/05/23 10:24:23;;;;;;;4.60;2.63;;;21.60;99.90;;;;;;5068968;28;20691;-74
2022/05/23 10:27:06;;;;;;;7.97;2.95;;;21.70;99.90;;;;;;5055790;28;20056;-74
2022/05/23 10:29:39;;;;;;;8.23;3.20;;;21.60;99.90;;;;;;5051089;28;20048;-74
2022/05/23 10:32:11;;;;;;;9.07;3.50;;;21.80;99.90;;;;;;5053152;28;20361;-76
2022/05/23 10:34:41;;;;;;;6.38;3.22;;;21.80;99.90;;;;;;5049855;28;20059;-75
2022/05/23 10:37:11;;;;;;;8.07;3.63;;;21.80;99.80;;;;;;5042141;28;20472;-76
2022/05/23 10:43:00;;;;;;;5.90;2.85;;;21.80;99.90;;;;;;5069016;28;20076;-75
2022/05/23 10:45:33;;;;;;;6.90;3.00;;;21.90;99.90;;;;;;5067745;28;20041;-75
2022/05/23 10:48:10;;;;;;;5.35;2.55;;;21.90;99.90;;;;;;5042325;28;20132;-76
2022/05/23 10:51:21;;;;;;;5.13;2.40;;;22.10;99.80;;;;;;5038745;28;20050;-76
2022/05/23 10:54:34;;;;;;;7.00;2.30;;;22.20;99.70;;;;;;5066414;28;20049;-76
2022/05/23 10:57:44;;;;;;;4.63;2.22;;;22.40;99.70;;;;;;5073439;28;20453;-76
2022/05/23 11:00:14;;;;;;;7.00;3.38;;;22.60;99.60;;;;;;5085057;28;20056;-76
2022/05/23 11:03:08;;;;;;;9.85;2.85;;;22.70;99.30;;;;;;5085855;28;20106;-76
2022/05/23 11:06:10;;;;;;;7.13;2.70;;;22.80;98.80;;;;;;5066887;28;20048;-75
2022/05/23 11:09:17;;;;;;;8.13;2.45;;;22.90;98.90;;;;;;5076310;28;20048;-75
2022/05/23 11:12:18;;;;;;;5.28;2.85;;;23.00;98.70;;;;;;5083049;28;20089;-75
2022/05/23 11:15:08;;;;;;;7.05;3.00;;;23.10;98.40;;;;;;5012649;28;20791;-75
2022/05/23 11:17:51;;;;;;;7.82;2.45;;;23.20;98.30;;;;;;5080333;28;20044;-75
2022/05/23 11:20:32;;;;;;;6.30;2.60;;;23.30;98.20;;;;;;5085884;28;20507;-74
2022/05/23 11:23:21;;;;;;;6.43;2.63;;;23.40;97.90;;;;;;5080153;28;20052;-73
2022/05/23 11:25:53;;;;;;;6.60;2.45;;;23.50;97.70;;;;;;5073721;28;20039;-74
2022/05/23 11:34:21;;;;;;;4.72;2.30;;;23.50;95.90;;;;;;5080359;28;20052;-73
2022/05/23 11:37:42;;;;;;;6.65;2.00;;;23.70;95.60;;;;;;5086672;28;20068;-73
2022/05/23 11:39:46;;;;;;;7.25;2.00;;;23.70;95.00;;;;;;5059847;28;20536;-74
2022/05/23 11:42:16;;;;;;;7.10;1.90;;;23.80;94.50;;;;;;5079840;28;20044;-74
2022/05/23 11:44:42;;;;;;;4.43;1.85;;;23.90;94.40;;;;;;5081748;28;20051;-74
2022/05/23 11:47:13;;;;;;;8.82;2.85;;;24.00;93.50;;;;;;5070217;28;20043;-74
2022/05/23 11:50:07;;;;;;;3.97;1.98;;;24.00;92.80;;;;;;5084089;28;20040;-74
2022/05/23 11:52:39;;;;;;;4.97;1.70;;;24.10;91.40;;;;;;5077020;28;20063;-73
2022/05/23 11:55:08;;;;;;;5.88;2.00;;;24.20;91.60;;;;;;5080921;28;20048;-75
2022/05/23 11:57:39;;;;;;;5.10;1.95;;;24.20;91.00;;;;;;5088026;28;20479;-73
2022/05/23 12:00:27;;;;;;;7.00;2.20;;;24.30;90.40;;;;;;5047719;28;20340;-74
2022/05/23 12:03:12;;;;;;;11.80;1.85;;;24.40;90.20;;;;;;5068654;28;20055;-74
2022/05/23 12:05:38;;;;;;;7.95;1.80;;;24.30;89.90;;;;;;5087016;28;20044;-74
2022/05/23 12:08:25;;;;;;;6.40;2.08;;;24.40;87.90;;;;;;5083326;28;20059;-73
2022/05/23 12:10:59;;;;;;;3.80;1.73;;;24.40;88.70;;;;;;5056238;28;20102;-74
2022/05/23 12:13:33;;;;;;;3.70;1.92;;;24.30;87.30;;;;;;5067907;28;20734;-75
2022/05/23 12:16:22;;;;;;;4.18;1.65;;;24.50;86.50;;;;;;5078735;28;20075;-74
2022/05/23 12:18:49;;;;;;;5.15;1.85;;;24.50;86.10;;;;;;5085695;28;20060;-74
2022/05/23 12:21:33;;;;;;;12.00;2.28;;;24.60;84.50;;;;;;5085408;28;20058;-74
2022/05/23 12:24:23;;;;;;;6.47;2.10;;;24.70;84.90;;;;;;5062745;28;20082;-74
2022/05/23 12:26:56;;;;;;;4.50;1.88;;;24.70;84.50;;;;;;5068787;28;20071;-73
2022/05/23 12:29:29;;;;;;;2.72;1.35;;;24.70;83.70;;;;;;5082680;28;20032;-74
2022/05/23 12:32:24;;;;;;;7.22;2.20;;;24.70;83.00;;;;;;5070288;28;20044;-73
2022/05/23 12:34:56;;;;;;;5.40;1.73;;;24.70;83.90;;;;;;5082273;28;20035;-74
2022/05/23 12:37:38;;;;;;;4.68;1.73;;;24.70;82.10;;;;;;5086861;28;20086;-74
2022/05/23 12:40:13;;;;;;;3.72;2.00;;;24.70;82.30;;;;;;5077955;28;20044;-74
2022/05/23 12:43:16;;;;;;;5.50;2.00;;;24.60;80.80;;;;;;5082365;28;20055;-74
2022/05/23 12:46:04;;;;;;;4.80;1.63;;;24.60;82.10;;;;;;5056102;28;20097;-74
2022/05/23 12:49:11;;;;;;;7.78;2.15;;;24.60;81.60;;;;;;5071945;28;20128;-74
2022/05/23 12:51:56;;;;;;;3.30;1.63;;;24.50;81.80;;;;;;5070184;28;20037;-73
2022/05/23 12:54:52;;;;;;;13.38;2.88;;;24.40;82.20;;;;;;5069401;28;20044;-75
2022/05/23 12:57:26;;;;;;;4.85;1.70;;;24.30;81.20;;;;;;5075330;28;20109;-73
2022/05/23 12:59:58;;;;;;;5.97;2.33;;;24.10;81.40;;;;;;5088571;28;20070;-75
2022/05/23 13:02:53;;;;;;;3.75;2.03;;;24.10;81.30;;;;;;5068693;28;20044;-74
2022/05/23 13:05:27;;;;;;;6.05;1.75;;;24.10;81.40;;;;;;5058672;28;20496;-74
2022/05/23 13:08:12;;;;;;;4.05;1.95;;;24.00;82.20;;;;;;5086396;28;20039;-74
2022/05/23 13:10:42;;;;;;;6.63;2.17;;;23.90;82.40;;;;;;5070713;28;20066;-74
2022/05/23 13:13:28;;;;;;;4.20;1.70;;;24.00;81.30;;;;;;5085011;28;20121;-75
2022/05/23 13:15:53;;;;;;;17.25;2.15;;;23.90;81.90;;;;;;5086451;28;20047;-74
2022/05/23 13:23:52;;;;;;;8.80;2.10;;;23.70;83.50;;;;;;5071305;28;20052;-75
2022/05/23 13:26:19;;;;;;;12.85;2.17;;;23.70;83.60;;;;;;5072289;28;20040;-75
2022/05/23 13:28:50;;;;;;;8.35;2.47;;;23.70;83.70;;;;;;5073406;28;20058;-77
2022/05/23 13:31:27;;;;;;;9.40;1.98;;;23.60;84.10;;;;;;5075986;28;20055;-76
2022/05/23 13:33:55;;;;;;;10.25;2.17;;;23.60;84.30;;;;;;5072114;28;20051;-75
2022/05/23 13:36:23;;;;;;;10.00;2.80;;;23.60;84.60;;;;;;5088002;28;20049;-77
2022/05/23 13:53:57;;;;;;;7.43;2.25;;;23.10;88.00;;;;;;5065654;27;20501;-80
2022/05/23 13:56:27;;;;;;;9.88;2.42;;;23.10;87.60;;;;;;5062726;28;20095;-80
2022/05/23 13:58:58;;;;;;;8.85;2.90;;;23.10;88.60;;;;;;5057129;28;20116;-77
2022/05/23 14:01:51;;;;;;;8.80;2.30;;;23.00;88.20;;;;;;5057780;28;20461;-76
2022/05/23 14:04:25;;;;;;;54.15;7.25;;;23.00;88.50;;;;;;5058119;28;20052;-76
2022/05/23 14:06:57;;;;;;;10.18;2.28;;;23.00;89.70;;;;;;5056939;28;20029;-75
2022/05/23 14:09:23;;;;;;;9.95;2.50;;;23.00;90.10;;;;;;5059002;28;20049;-76
2022/05/23 14:11:53;;;;;;;8.13;2.30;;;22.90;90.50;;;;;;5060230;28;20439;-76
2022/05/23 14:14:38;;;;;;;6.25;2.42;;;23.00;91.20;;;;;;5060695;28;20044;-76
2022/05/23 14:17:15;;;;;;;8.07;2.60;;;22.90;91.70;;;;;;5061641;28;20348;-76
2022/05/23 14:19:50;;;;;;;6.93;2.90;;;23.00;92.50;;;;;;5063845;28;20067;-76
2022/05/23 14:22:23;;;;;;;4.53;2.53;;;22.90;93.10;;;;;;5065020;28;20182;-75
2022/05/23 14:24:51;;;;;;;8.00;2.67;;;23.10;93.50;;;;;;5064988;28;20041;-75